Time;durP1;ratioP1;P1;durP2;ratioP2;P2;SDS_P1;SDS_P2;PMS_P1;PMS_P2;Temp;Humidity;BMP_temperature;BMP_pressure;BME280_temperature;BME280_humidity;BME280_pressure;Samples;Min_cycle;Max_cycle;Signal;HPM_P1;HPM_P2
2021/12/03 00:02:06;;;;;;;13.18;3.25;;;;;;;0.93;100.00;101135.78;5034525;28;20033;-79
2021/12/03 00:04:32;;;;;;;11.48;3.47;;;;;;;0.93;100.00;101140.97;5039142;28;20120;-77
2021/12/03 00:06:57;;;;;;;11.07;3.28;;;;;;;0.94;100.00;101145.34;5032938;28;20021;-76
2021/12/03 00:09:23;;;;;;;9.30;3.13;;;;;;;0.95;100.00;101147.16;5033538;28;20115;-76
2021/12/03 00:11:49;;;;;;;9.30;3.03;;;;;;;0.95;100.00;101149.75;5037002;28;20051;-76
2021/12/03 00:14:14;;;;;;;10.05;3.10;;;;;;;0.98;100.00;101152.50;5032443;28;20087;-77
2021/12/03 00:16:39;;;;;;;9.77;3.58;;;;;;;1.03;100.00;101150.19;5033491;28;20486;-77
2021/12/03 00:19:05;;;;;;;7.97;3.50;;;;;;;1.08;100.00;101155.66;5030916;28;20107;-78
2021/12/03 00:21:31;;;;;;;6.07;2.92;;;;;;;1.10;100.00;101156.63;5033813;28;20068;-77
2021/12/03 00:23:56;;;;;;;9.23;3.22;;;;;;;1.13;100.00;101149.06;5039830;28;20458;-76
2021/12/03 00:26:22;;;;;;;8.80;3.35;;;;;;;1.15;100.00;101147.44;5036159;28;20060;-76
2021/12/03 00:28:48;;;;;;;13.40;4.05;;;;;;;1.14;100.00;101153.41;5030164;28;20120;-76
2021/12/03 00:31:14;;;;;;;7.35;3.30;;;;;;;1.12;100.00;101157.63;5032023;28;20029;-77
2021/12/03 00:33:40;;;;;;;8.43;2.63;;;;;;;1.13;100.00;101155.13;5019704;28;20120;-76
2021/12/03 00:36:08;;;;;;;8.57;2.80;;;;;;;1.16;100.00;101154.41;5033155;28;20034;-77
2021/12/03 00:38:46;;;;;;;9.32;2.25;;;;;;;1.17;100.00;101153.63;5033080;28;20087;-77
2021/12/03 00:41:18;;;;;;;4.30;2.42;;;;;;;1.16;100.00;101154.41;5030702;28;20083;-76
2021/12/03 00:43:46;;;;;;;10.10;2.50;;;;;;;1.20;100.00;101155.50;5036063;28;20033;-77
2021/12/03 00:46:17;;;;;;;13.88;2.30;;;;;;;1.22;100.00;101156.47;5031108;28;20021;-77
2021/12/03 00:48:47;;;;;;;9.43;2.30;;;;;;;1.21;100.00;101153.00;5033260;28;20079;-77
2021/12/03 00:51:18;;;;;;;6.18;2.38;;;;;;;1.17;100.00;101145.84;5030236;28;20028;-77
2021/12/03 00:53:44;;;;;;;11.60;2.22;;;;;;;1.15;100.00;101148.34;5031556;28;20041;-77
2021/12/03 00:56:10;;;;;;;6.95;2.20;;;;;;;1.16;100.00;101154.41;5037421;28;20128;-77
2021/12/03 00:58:37;;;;;;;10.48;2.10;;;;;;;1.13;100.00;101146.47;5032107;28;20087;-77
2021/12/03 01:01:04;;;;;;;10.48;1.95;;;;;;;1.17;100.00;101151.03;5033464;28;20037;-77
2021/12/03 01:03:30;;;;;;;9.32;2.45;;;;;;;1.17;100.00;101143.25;5032118;28;20033;-77
2021/12/03 01:05:55;;;;;;;10.25;1.77;;;;;;;1.19;100.00;101139.03;5038729;28;20160;-77
2021/12/03 01:08:21;;;;;;;7.97;2.25;;;;;;;1.20;100.00;101140.84;5036223;28;20029;-77
2021/12/03 01:10:47;;;;;;;7.85;2.38;;;;;;;1.22;100.00;101143.50;5032220;28;20032;-77
2021/12/03 01:13:12;;;;;;;7.10;1.67;;;;;;;1.27;100.00;101137.78;5036483;28;20029;-77
2021/12/03 01:15:39;;;;;;;9.15;2.00;;;;;;;1.28;100.00;101131.81;5034368;28;20026;-77
2021/12/03 01:18:05;;;;;;;7.68;1.80;;;;;;;1.27;100.00;101131.72;5036879;28;20037;-77
2021/12/03 01:20:32;;;;;;;5.13;2.10;;;;;;;1.30;100.00;101138.00;5029217;28;20083;-77
2021/12/03 01:22:58;;;;;;;8.90;2.22;;;;;;;1.35;100.00;101131.34;5032637;28;20107;-77
2021/12/03 01:25:25;;;;;;;5.07;1.77;;;;;;;1.41;100.00;101133.44;5032523;28;20073;-76
2021/12/03 01:27:52;;;;;;;11.65;2.00;;;;;;;1.41;100.00;101141.22;5036682;28;20036;-77
2021/12/03 01:30:20;;;;;;;7.05;2.03;;;;;;;1.45;100.00;101138.00;5037444;28;20428;-77
2021/12/03 01:32:48;;;;;;;9.18;2.45;;;;;;;1.48;100.00;101143.34;5037482;28;20034;-77
2021/12/03 01:35:15;;;;;;;6.38;2.22;;;;;;;1.49;100.00;101146.81;5032629;28;20083;-77
2021/12/03 01:37:42;;;;;;;11.45;2.55;;;;;;;1.49;100.00;101141.63;5029488;28;20029;-77
2021/12/03 01:40:11;;;;;;;6.38;2.00;;;;;;;1.48;100.00;101153.72;5030594;28;20024;-75
2021/12/03 01:42:38;;;;;;;13.23;2.28;;;;;;;1.47;100.00;101145.84;5030612;28;20029;-76
2021/12/03 01:45:08;;;;;;;8.50;2.00;;;;;;;1.52;100.00;101140.13;5031784;28;20057;-75
2021/12/03 01:47:33;;;;;;;7.18;1.77;;;;;;;1.56;100.00;101136.03;5034987;28;20038;-75
2021/12/03 01:49:59;;;;;;;7.20;1.90;;;;;;;1.60;100.00;101132.78;5033831;28;20083;-76
2021/12/03 01:52:24;;;;;;;9.32;2.05;;;;;;;1.64;100.00;101137.34;5036548;28;21352;-76
2021/12/03 01:54:49;;;;;;;12.07;2.28;;;;;;;1.68;100.00;101134.13;5036992;28;20025;-77
2021/12/03 01:57:16;;;;;;;5.85;1.48;;;;;;;1.69;100.00;101128.09;5034636;28;20032;-77
2021/12/03 01:59:42;;;;;;;7.60;2.20;;;;;;;1.71;100.00;101129.91;5038708;28;20487;-78
2021/12/03 02:02:08;;;;;;;7.75;1.25;;;;;;;1.75;100.00;101122.41;5034406;28;20032;-77
2021/12/03 02:04:34;;;;;;;8.65;1.63;;;;;;;1.77;100.00;101120.75;5033162;28;20045;-77
2021/12/03 02:06:59;;;;;;;7.50;1.45;;;;;;;1.81;100.00;101119.25;5041614;28;20133;-78
2021/12/03 02:09:25;;;;;;;6.90;1.40;;;;;;;1.83;100.00;101107.25;5035330;28;20027;-77
2021/12/03 02:11:50;;;;;;;5.25;1.10;;;;;;;1.91;100.00;101103.38;5039889;28;20114;-76
2021/12/03 02:14:15;;;;;;;8.73;1.45;;;;;;;1.95;100.00;101094.94;5039230;28;20068;-77
2021/12/03 02:16:45;;;;;;;8.15;1.60;;;;;;;1.95;100.00;101097.53;5034651;28;20036;-77
2021/12/03 02:19:10;;;;;;;6.57;1.30;;;;;;;1.97;100.00;101098.53;5034574;28;20094;-77
2021/12/03 02:21:35;;;;;;;12.93;1.85;;;;;;;1.98;100.00;101109.78;5036303;28;20032;-77
2021/12/03 02:24:01;;;;;;;10.43;1.55;;;;;;;1.97;100.00;101111.50;5036694;28;20477;-77
2021/12/03 02:26:26;;;;;;;4.82;1.70;;;;;;;1.98;100.00;101118.50;5039775;28;20057;-77
2021/12/03 02:28:52;;;;;;;8.27;1.75;;;;;;;1.98;100.00;101115.91;5032255;28;20111;-76
2021/12/03 02:31:21;;;;;;;8.70;2.00;;;;;;;1.99;100.00;101117.69;5039907;28;20025;-76
2021/12/03 02:33:48;;;;;;;7.22;1.98;;;;;;;2.04;100.00;101123.13;5036586;28;20079;-76
2021/12/03 02:36:14;;;;;;;16.80;2.47;;;;;;;2.01;100.00;101108.28;5032646;28;20371;-76
2021/12/03 02:38:40;;;;;;;15.43;1.55;;;;;;;2.05;100.00;101114.53;5032628;28;20037;-76
2021/12/03 02:41:05;;;;;;;5.57;1.90;;;;;;;2.09;100.00;101108.72;5012069;28;20045;-75
2021/12/03 02:43:31;;;;;;;15.25;2.83;;;;;;;2.14;100.00;101106.34;5034963;28;20080;-77
2021/12/03 02:45:57;;;;;;;5.22;1.75;;;;;;;2.15;100.00;101108.16;5034003;28;20029;-76
2021/12/03 02:48:25;;;;;;;5.88;2.03;;;;;;;2.16;100.00;101115.13;5033577;28;20094;-77
2021/12/03 02:50:51;;;;;;;14.65;2.58;;;;;;;2.19;100.00;101102.31;5034068;28;20508;-76
2021/12/03 02:53:16;;;;;;;7.65;2.17;;;;;;;2.19;100.00;101110.09;5039279;28;20068;-77
2021/12/03 02:55:43;;;;;;;12.00;2.42;;;;;;;2.26;100.00;101104.41;5036849;28;20389;-76
2021/12/03 02:58:08;;;;;;;6.25;1.88;;;;;;;2.27;100.00;101101.03;5041647;28;20433;-76
2021/12/03 03:00:34;;;;;;;6.28;1.50;;;;;;;2.35;100.00;101106.63;5036440;28;20029;-76
2021/12/03 03:03:00;;;;;;;15.88;2.30;;;;;;;2.35;100.00;101101.44;5032117;28;20091;-76
2021/12/03 03:05:27;;;;;;;12.25;2.10;;;;;;;2.37;100.00;101097.22;5038095;28;20492;-76
2021/12/03 03:07:53;;;;;;;6.38;1.50;;;;;;;2.40;100.00;101097.41;5040677;28;20029;-75
2021/12/03 03:10:24;;;;;;;3.88;1.33;;;;;;;2.38;100.00;101098.13;5040552;28;20407;-77
2021/12/03 03:12:50;;;;;;;4.03;1.58;;;;;;;2.41;100.00;101100.88;5032110;28;20432;-76
2021/12/03 03:15:17;;;;;;;10.75;1.65;;;;;;;2.38;100.00;101100.72;5033165;28;20067;-78
2021/12/03 03:17:43;;;;;;;7.90;1.80;;;;;;;2.39;100.00;101097.28;5034639;28;20108;-76
2021/12/03 03:20:09;;;;;;;6.97;1.40;;;;;;;2.40;100.00;101093.88;5034329;28;20434;-75
2021/12/03 03:22:36;;;;;;;6.70;1.75;;;;;;;2.44;100.00;101080.25;5032628;28;20036;-76
2021/12/03 03:25:06;;;;;;;10.05;1.55;;;;;;;2.45;100.00;101069.94;5032155;28;20038;-76
2021/12/03 03:27:33;;;;;;;7.82;1.38;;;;;;;2.49;100.00;101068.41;5038442;28;20033;-76
2021/12/03 03:30:00;;;;;;;5.70;1.25;;;;;;;2.51;100.00;101064.22;5033254;28;20017;-77
2021/12/03 03:32:26;;;;;;;9.32;1.02;;;;;;;2.56;100.00;101056.63;5034052;28;20045;-76
2021/12/03 03:34:52;;;;;;;9.43;1.42;;;;;;;2.58;100.00;101061.09;5029268;28;20386;-77
2021/12/03 03:37:19;;;;;;;5.07;0.80;;;;;;;2.61;100.00;101060.38;5034142;28;20052;-76
2021/12/03 03:39:45;;;;;;;5.32;1.42;;;;;;;2.74;100.00;101052.41;5036343;28;20388;-76
2021/12/03 03:42:11;;;;;;;7.97;1.33;;;;;;;2.78;100.00;101050.84;5039523;28;20460;-76
2021/12/03 03:44:38;;;;;;;11.90;1.30;;;;;;;2.80;100.00;101055.31;5033829;28;20051;-76
2021/12/03 03:47:05;;;;;;;5.55;1.15;;;;;;;2.87;100.00;101040.91;5033559;28;20028;-76
2021/12/03 03:49:31;;;;;;;6.07;0.93;;;;;;;2.93;100.00;101042.94;5032560;28;20061;-77
2021/12/03 03:51:58;;;;;;;3.35;0.90;;;;;;;2.98;100.00;101038.88;5037648;28;20461;-77
2021/12/03 03:54:23;;;;;;;5.43;1.00;;;;;;;2.95;100.00;101042.19;5034948;28;20037;-77
2021/12/03 03:56:49;;;;;;;4.55;1.10;;;;;;;3.04;100.00;101044.38;5047160;28;20497;-77
2021/12/03 03:59:17;;;;;;;6.50;2.45;;;;;;;3.10;100.00;101041.19;5028369;28;20346;-76
2021/12/03 04:01:51;;;;;;;8.90;1.50;;;;;;;3.07;100.00;101041.06;5039253;28;20029;-76
2021/12/03 04:04:17;;;;;;;4.25;1.10;;;;;;;3.04;100.00;101042.66;5035846;28;20033;-76
2021/12/03 04:06:45;;;;;;;6.10;1.27;;;;;;;3.04;100.00;101029.66;5039596;28;20029;-76
2021/12/03 04:09:11;;;;;;;9.05;1.50;;;;;;;3.06;100.00;101037.53;5034014;28;20025;-77
2021/12/03 04:11:38;;;;;;;10.57;1.52;;;;;;;3.02;100.00;101031.28;5034501;28;20086;-76
2021/12/03 04:14:04;;;;;;;10.38;1.67;;;;;;;3.02;100.00;101036.50;5036793;28;20477;-77
2021/12/03 04:16:31;;;;;;;10.35;1.30;;;;;;;3.04;100.00;101045.28;5032224;28;20037;-77
2021/12/03 04:18:57;;;;;;;5.88;1.63;;;;;;;3.03;100.00;101046.06;5037623;28;20104;-77
2021/12/03 04:21:23;;;;;;;12.82;2.40;;;;;;;3.09;100.00;101049.81;5033341;28;20056;-76
2021/12/03 04:23:49;;;;;;;10.77;2.25;;;;;;;3.15;100.00;101039.72;5031163;28;20087;-77
2021/12/03 04:26:15;;;;;;;5.90;2.10;;;;;;;3.18;100.00;101048.56;5044178;28;20052;-77
2021/12/03 04:28:40;;;;;;;9.68;2.65;;;;;;;3.19;100.00;101034.75;5031774;28;20029;-77
2021/12/03 04:31:08;;;;;;;13.05;2.78;;;;;;;3.19;100.00;101039.94;5030035;28;20080;-77
2021/12/03 04:33:33;;;;;;;12.90;2.47;;;;;;;3.21;100.00;101037.41;5031703;28;20064;-76
2021/12/03 04:35:59;;;;;;;12.02;2.78;;;;;;;3.23;100.00;101035.78;5030740;28;20056;-75
2021/12/03 04:38:24;;;;;;;8.13;1.98;;;;;;;3.23;100.00;101030.59;5032942;28;20111;-76
2021/12/03 04:40:50;;;;;;;13.43;2.90;;;;;;;3.20;100.00;101026.13;5032268;28;20098;-77
2021/12/03 04:43:15;;;;;;;12.63;2.38;;;;;;;3.22;100.00;101018.41;5031759;28;20029;-77
2021/12/03 04:45:41;;;;;;;10.23;2.28;;;;;;;3.23;100.00;101020.19;5031201;28;20045;-77
2021/12/03 04:48:07;;;;;;;8.32;2.75;;;;;;;3.24;100.00;101018.47;5030464;28;20064;-76
2021/12/03 04:50:37;;;;;;;11.48;2.45;;;;;;;3.24;100.00;101015.88;5032810;28;20056;-76
2021/12/03 04:53:04;;;;;;;9.52;2.42;;;;;;;3.22;100.00;101023.59;5030791;28;20389;-76
2021/12/03 04:55:30;;;;;;;7.97;2.20;;;;;;;3.25;100.00;101013.34;5037525;28;20473;-76
2021/12/03 04:57:55;;;;;;;8.52;2.25;;;;;;;3.28;100.00;101013.47;5031332;28;20075;-76
2021/12/03 05:00:35;;;;;;;13.40;2.15;;;;;;;3.26;100.00;101015.13;5031016;28;20028;-77
2021/12/03 05:03:00;;;;;;;13.82;2.90;;;;;;;3.24;100.00;101011.53;5029155;28;20053;-77
2021/12/03 05:05:31;;;;;;;8.35;1.88;;;;;;;3.24;100.00;101014.16;5030886;28;20057;-77
2021/12/03 05:08:01;;;;;;;6.55;2.38;;;;;;;3.22;100.00;101008.00;5035554;28;20029;-77
2021/12/03 05:10:30;;;;;;;7.47;2.25;;;;;;;3.23;100.00;100999.38;5029879;28;20038;-77
2021/12/03 05:12:57;;;;;;;15.85;2.88;;;;;;;3.27;100.00;101003.91;5030985;28;20029;-75
2021/12/03 05:15:23;;;;;;;17.00;2.97;;;;;;;3.28;100.00;101003.06;5032301;28;20037;-77
2021/12/03 05:17:49;;;;;;;20.23;3.13;;;;;;;3.29;100.00;100999.66;5034482;28;20029;-77
2021/12/03 05:20:15;;;;;;;8.30;2.90;;;;;;;3.31;100.00;101000.66;5038521;28;20033;-77
2021/12/03 05:22:41;;;;;;;13.10;2.80;;;;;;;3.33;100.00;100990.31;5031717;28;20040;-76
2021/12/03 05:25:07;;;;;;;32.45;3.67;;;;;;;3.33;100.00;100995.53;5040987;28;20427;-78
2021/12/03 05:27:33;;;;;;;12.30;3.47;;;;;;;3.37;100.00;100992.25;5034330;28;20037;-77
2021/12/03 05:29:58;;;;;;;11.70;3.08;;;;;;;3.38;100.00;101001.84;5043131;28;20033;-77
2021/12/03 05:32:24;;;;;;;10.80;2.65;;;;;;;3.35;100.00;100999.97;5034969;28;20447;-77
2021/12/03 05:34:49;;;;;;;14.95;3.35;;;;;;;3.38;100.00;100994.91;5036342;28;20029;-77
2021/12/03 05:37:15;;;;;;;17.70;4.05;;;;;;;3.40;100.00;100992.38;5035137;28;20037;-77
2021/12/03 05:39:40;;;;;;;13.77;2.90;;;;;;;3.41;100.00;100990.69;5035128;28;20458;-76
2021/12/03 05:42:06;;;;;;;12.65;3.95;;;;;;;3.43;100.00;100986.44;5041690;28;20075;-77
2021/12/03 05:44:32;;;;;;;9.68;2.47;;;;;;;3.44;100.00;100983.91;5033848;28;20025;-77
2021/12/03 05:46:58;;;;;;;7.53;1.75;;;;;;;3.49;100.00;100971.13;5030727;28;20400;-77
2021/12/03 05:49:27;;;;;;;12.27;2.40;;;;;;;3.54;100.00;100974.81;5035279;28;20082;-77
2021/12/03 05:51:53;;;;;;;12.88;2.60;;;;;;;3.54;100.00;100960.13;5033078;28;20159;-77
2021/12/03 05:54:20;;;;;;;11.23;2.72;;;;;;;3.60;100.00;100966.44;5035698;28;20107;-76
2021/12/03 05:56:47;;;;;;;7.07;2.40;;;;;;;3.59;100.00;100970.72;5031903;28;20029;-75
2021/12/03 05:59:13;;;;;;;9.80;3.22;;;;;;;3.61;100.00;100971.72;5031336;28;20028;-75
2021/12/03 06:01:38;;;;;;;12.23;2.60;;;;;;;3.64;100.00;100970.97;5035845;28;20184;-75
2021/12/03 06:04:04;;;;;;;19.80;3.63;;;;;;;3.58;100.00;100984.59;5034324;28;20033;-74
2021/12/03 06:06:29;;;;;;;13.35;4.45;;;;;;;3.58;100.00;100979.38;5036254;28;20071;-73
2021/12/03 06:08:57;;;;;;;12.38;3.58;;;;;;;3.58;100.00;100984.59;5032470;28;20115;-73
2021/12/03 06:11:24;;;;;;;10.85;3.95;;;;;;;3.61;100.00;100982.13;5032809;28;20136;-75
2021/12/03 06:13:49;;;;;;;15.73;3.40;;;;;;;3.59;100.00;100978.53;5035832;28;20029;-74
2021/12/03 06:16:15;;;;;;;13.10;3.60;;;;;;;3.59;100.00;100973.34;5032575;28;20812;-75
2021/12/03 06:18:41;;;;;;;18.38;4.38;;;;;;;3.61;100.00;100971.72;5038139;28;20029;-75
2021/12/03 06:21:08;;;;;;;18.88;3.85;;;;;;;3.65;100.00;100963.22;5034421;28;20026;-74
2021/12/03 06:23:34;;;;;;;19.13;4.32;;;;;;;3.64;100.00;100976.16;5030618;28;20034;-74
2021/12/03 06:26:00;;;;;;;17.88;3.60;;;;;;;3.69;100.00;100974.66;5026746;28;20041;-74
2021/12/03 06:28:28;;;;;;;18.25;3.50;;;;;;;3.67;100.00;100981.50;5030659;28;20049;-74
2021/12/03 06:30:54;;;;;;;12.90;3.22;;;;;;;3.67;100.00;100976.31;5029940;28;20032;-75
2021/12/03 06:33:20;;;;;;;13.88;3.15;;;;;;;3.70;100.00;100974.75;5034330;28;20498;-76
2021/12/03 06:35:47;;;;;;;20.80;4.07;;;;;;;3.71;100.00;100973.03;5029921;28;20036;-75
2021/12/03 06:38:14;;;;;;;18.25;3.20;;;;;;;3.75;100.00;100968.88;5027302;28;20593;-75
2021/12/03 06:40:41;;;;;;;17.75;3.13;;;;;;;3.72;100.00;100960.06;5029029;28;20048;-75
2021/12/03 06:43:07;;;;;;;8.68;2.92;;;;;;;3.74;100.00;100961.88;5025731;28;20549;-76
2021/12/03 06:45:32;;;;;;;15.82;4.28;;;;;;;3.74;100.00;100962.75;5031782;28;20034;-77
2021/12/03 06:47:58;;;;;;;13.82;3.15;;;;;;;3.63;100.00;100951.84;5028778;28;20473;-76
2021/12/03 06:50:24;;;;;;;17.10;4.20;;;;;;;3.63;100.00;100944.03;5030309;28;20026;-76
2021/12/03 06:52:58;;;;;;;8.00;3.00;;;;;;;3.64;100.00;100950.16;5030581;28;20025;-76
2021/12/03 06:55:23;;;;;;;;;;;;;;;3.61;100.00;100950.91;5032713;28;20481;-76
2021/12/03 06:57:48;;;;;;;14.90;3.28;;;;;;;3.60;99.57;100945.63;5027048;28;20000;-76
2021/12/03 07:00:17;;;;;;;18.58;3.72;;;;;;;3.64;98.85;100948.44;5028764;28;20022;-77
2021/12/03 07:02:42;;;;;;;13.38;3.60;;;;;;;3.56;98.43;100947.19;5032362;28;20087;-74
2021/12/03 07:05:09;;;;;;;17.23;3.53;;;;;;;3.54;98.55;100943.59;5034736;28;20045;-74
2021/12/03 07:07:36;;;;;;;14.05;3.35;;;;;;;3.50;98.26;100952.09;5032076;28;20040;-74
2021/12/03 07:10:03;;;;;;;15.50;3.50;;;;;;;3.50;98.14;100957.28;5031526;28;20032;-74
2021/12/03 07:12:30;;;;;;;19.20;3.97;;;;;;;3.49;97.97;100951.19;5030021;28;20044;-75
2021/12/03 07:14:56;;;;;;;16.30;4.13;;;;;;;3.49;97.11;100955.53;5033305;28;20025;-75
2021/12/03 07:17:21;;;;;;;10.15;3.08;;;;;;;3.47;97.12;100944.16;5032325;28;20059;-74
2021/12/03 07:19:46;;;;;;;15.57;4.57;;;;;;;3.45;97.47;100945.78;5034126;28;20026;-74
2021/12/03 07:22:12;;;;;;;17.95;4.15;;;;;;;3.39;96.72;100948.97;5033140;28;20455;-75
2021/12/03 07:24:37;;;;;;;17.42;3.58;;;;;;;3.43;96.94;100944.81;5031308;28;20033;-75
2021/12/03 07:27:05;;;;;;;13.00;4.38;;;;;;;3.33;96.95;100949.59;5035016;28;20144;-74
2021/12/03 07:29:32;;;;;;;15.52;4.00;;;;;;;3.40;97.53;100939.47;5032028;28;20581;-73
2021/12/03 07:31:58;;;;;;;9.35;3.53;;;;;;;3.35;97.42;100944.44;5027934;28;20117;-73
2021/12/03 07:34:23;;;;;;;13.90;3.85;;;;;;;3.31;97.08;100945.13;5032294;28;20057;-74
2021/12/03 07:36:49;;;;;;;17.75;4.50;;;;;;;3.33;96.25;100933.97;5033830;28;20071;-74
2021/12/03 07:39:14;;;;;;;15.85;4.40;;;;;;;3.24;95.33;100930.94;5033435;28;20060;-74
2021/12/03 07:41:41;;;;;;;19.17;4.47;;;;;;;3.29;95.41;100939.84;5033239;28;20481;-74
2021/12/03 07:44:09;;;;;;;16.88;3.80;;;;;;;3.27;95.77;100928.50;5033832;28;20134;-74
2021/12/03 07:46:35;;;;;;;10.57;3.90;;;;;;;3.26;95.84;100923.22;5038223;28;20516;-74
2021/12/03 07:49:02;;;;;;;13.70;4.00;;;;;;;3.26;96.14;100918.91;5033085;28;20112;-74
2021/12/03 07:51:28;;;;;;;11.57;3.60;;;;;;;3.20;95.61;100916.00;5032965;28;20056;-74
2021/12/03 07:53:54;;;;;;;19.00;3.47;;;;;;;3.19;96.01;100919.44;5030739;28;20029;-75
2021/12/03 07:56:19;;;;;;;14.77;3.38;;;;;;;3.23;96.14;100926.56;5031325;28;20469;-75
2021/12/03 07:58:45;;;;;;;23.98;4.25;;;;;;;3.18;95.75;100915.06;5034903;28;20389;-75
2021/12/03 08:01:10;;;;;;;13.80;4.00;;;;;;;3.16;95.68;100920.19;5035098;28;20025;-74
2021/12/03 08:03:36;;;;;;;5.70;3.10;;;;;;;3.21;95.61;100912.59;5034010;28;20034;-75
2021/12/03 08:06:08;;;;;;;12.20;4.28;;;;;;;3.21;95.33;100904.78;5036318;28;21525;-75
2021/12/03 08:08:34;;;;;;;11.18;3.40;;;;;;;3.17;95.64;100908.97;5032560;28;20033;-75
2021/12/03 08:11:00;;;;;;;9.90;3.70;;;;;;;3.21;95.28;100904.78;5036636;28;20036;-75
2021/12/03 08:13:25;;;;;;;27.45;4.07;;;;;;;3.23;95.30;100926.56;5038715;28;20160;-75
2021/12/03 08:15:51;;;;;;;11.55;3.47;;;;;;;3.23;95.56;100913.56;5034482;28;20049;-75
2021/12/03 08:18:17;;;;;;;13.32;3.40;;;;;;;3.24;95.67;100906.66;5034815;28;20484;-75
2021/12/03 08:20:43;;;;;;;14.48;4.28;;;;;;;3.25;95.65;100887.63;5035273;28;20021;-74
2021/12/03 08:23:08;;;;;;;12.77;3.47;;;;;;;3.26;95.69;100886.81;5040934;28;20040;-74
2021/12/03 08:25:33;;;;;;;18.20;3.70;;;;;;;3.32;95.98;100897.50;5037069;28;20045;-74
2021/12/03 08:27:59;;;;;;;12.05;3.65;;;;;;;3.27;96.15;100892.09;5038978;28;20432;-75
2021/12/03 08:30:28;;;;;;;14.95;4.05;;;;;;;3.30;96.41;100891.34;5032130;28;20095;-74
2021/12/03 08:32:54;;;;;;;11.60;3.38;;;;;;;3.36;96.39;100886.41;5041454;28;20529;-74
2021/12/03 08:35:20;;;;;;;13.30;3.72;;;;;;;3.36;96.22;100876.91;5032014;28;20148;-74
2021/12/03 08:37:48;;;;;;;9.32;3.30;;;;;;;3.36;95.89;100874.31;5033365;28;20051;-75
2021/12/03 08:40:14;;;;;;;11.52;3.00;;;;;;;3.38;95.08;100871.78;5031222;28;20619;-74
2021/12/03 08:42:40;;;;;;;8.77;2.80;;;;;;;3.44;94.65;100895.47;5036292;28;20452;-74
2021/12/03 08:45:05;;;;;;;5.75;2.63;;;;;;;3.44;93.91;100865.97;5032716;28;20038;-74
2021/12/03 08:47:35;;;;;;;10.68;2.08;;;;;;;3.52;93.76;100869.81;5036965;28;20366;-74
2021/12/03 08:50:07;;;;;;;11.70;2.20;;;;;;;3.52;92.39;100856.81;5029706;28;20059;-74
2021/12/03 08:55:16;;;;;;;9.60;1.45;;;;;;;3.51;93.37;100871.53;5036315;28;20037;-75
2021/12/03 08:57:42;;;;;;;8.88;1.73;;;;;;;3.51;93.35;100865.41;5030416;28;20366;-74
2021/12/03 09:00:11;;;;;;;7.25;1.60;;;;;;;3.50;93.90;100851.53;5033261;28;20087;-77
2021/12/03 09:02:36;;;;;;;6.22;1.95;;;;;;;3.55;93.51;100851.72;5038711;28;20047;-74
2021/12/03 09:05:02;;;;;;;5.82;1.75;;;;;;;3.60;93.74;100836.34;5040966;28;20037;-76
2021/12/03 09:07:28;;;;;;;12.25;2.33;;;;;;;3.64;93.02;100831.31;5036455;28;20120;-75
2021/12/03 09:09:53;;;;;;;5.60;1.73;;;;;;;3.69;92.99;100829.81;5037413;28;20029;-76
2021/12/03 09:12:19;;;;;;;10.73;1.80;;;;;;;3.72;92.17;100829.94;5036682;28;20034;-75
2021/12/03 09:14:51;;;;;;;8.80;2.00;;;;;;;3.78;92.08;100818.91;5037541;28;20057;-76
2021/12/03 09:20:08;;;;;;;9.88;2.08;;;;;;;3.87;90.40;100818.44;5037332;28;20045;-75
2021/12/03 09:25:05;;;;;;;10.43;1.60;;;;;;;3.90;90.68;100809.88;5046378;28;20046;-76
2021/12/03 09:27:31;;;;;;;5.80;1.98;;;;;;;3.87;91.35;100803.69;5033793;28;20021;-74
2021/12/03 09:29:57;;;;;;;6.10;1.90;;;;;;;3.87;91.27;100816.72;5038183;28;20025;-76
2021/12/03 09:32:30;;;;;;;13.80;3.20;;;;;;;3.83;92.32;100813.94;5037145;28;20037;-76
2021/12/03 09:34:56;;;;;;;6.82;1.60;;;;;;;3.77;92.47;100801.53;5037463;28;20140;-77
2021/12/03 09:37:23;;;;;;;18.85;2.85;;;;;;;3.76;92.86;100812.78;5038573;28;20056;-77
2021/12/03 09:39:49;;;;;;;8.10;2.72;;;;;;;3.64;93.74;100810.50;5032726;28;20025;-76
2021/12/03 09:42:21;;;;;;;10.88;2.63;;;;;;;3.61;93.78;100827.69;5035996;28;20036;-78
2021/12/03 09:44:50;;;;;;;10.20;3.40;;;;;;;3.62;94.14;100811.25;5032829;28;20029;-76
2021/12/03 09:47:17;;;;;;;11.88;2.33;;;;;;;3.58;93.84;100805.06;5033273;28;20029;-76
2021/12/03 09:49:44;;;;;;;13.38;2.78;;;;;;;3.54;94.25;100800.50;5036714;28;20128;-75
2021/12/03 09:54:47;;;;;;;9.40;3.55;;;;;;;3.47;95.54;100785.47;5037361;28;20044;-75
2021/12/03 10:00:36;;;;;;;22.90;4.18;;;;;;;3.38;96.21;100785.97;5034209;28;20025;-76
2021/12/03 10:03:36;;;;;;;18.52;4.72;;;;;;;3.39;97.13;100792.91;5037722;28;20025;-77
2021/12/03 10:11:43;;;;;;;18.13;4.95;;;;;;;3.15;99.47;100775.41;5036022;28;20057;-76
2021/12/03 10:17:31;;;;;;;26.92;6.28;;;;;;;3.02;100.00;100781.72;5039568;28;20170;-76
2021/12/03 10:20:20;;;;;;;23.55;5.55;;;;;;;2.98;100.00;100776.34;5039843;28;20029;-76
2021/12/03 10:37:38;;;;;;;18.17;6.57;;;;;;;2.94;100.00;100736.31;5012348;28;20463;-75
2021/12/03 10:44:51;;;;;;;28.33;6.70;;;;;;;3.08;100.00;100736.94;5016939;28;20052;-75
2021/12/03 10:47:38;;;;;;;26.35;6.65;;;;;;;3.12;100.00;100732.75;5012797;28;20030;-74
2021/12/03 10:53:18;;;;;;;24.95;6.40;;;;;;;3.20;100.00;100734.00;5012143;28;20049;-74
2021/12/03 13:28:12;;;;;;;5.63;4.32;;;;;;;4.18;100.00;100483.81;5033392;28;20075;-77
2021/12/03 14:52:46;;;;;;;6.22;5.20;;;;;;;3.95;100.00;100460.41;5035009;28;20123;-78
2021/12/03 14:55:25;;;;;;;7.25;5.65;;;;;;;3.93;100.00;100451.63;5034161;28;20025;-78
2021/12/03 14:57:56;;;;;;;6.00;5.38;;;;;;;3.90;100.00;100448.06;5033047;28;20499;-77
2021/12/03 15:00:28;;;;;;;9.23;5.40;;;;;;;3.88;100.00;100461.03;5033103;28;20024;-74
2021/12/03 15:06:18;;;;;;;8.20;6.30;;;;;;;3.85;100.00;100435.75;5030910;28;20095;-74
2021/12/03 15:09:00;;;;;;;8.93;5.82;;;;;;;3.85;100.00;100434.84;5031986;28;20711;-75
2021/12/03 15:24:37;;;;;;;12.23;7.45;;;;;;;3.92;100.00;100422.97;5029409;28;20048;-74
2021/12/03 15:32:37;;;;;;;;;;;;;;;3.98;100.00;100411.06;5031201;28;20481;-75
2021/12/03 15:54:37;;;;;;;11.50;10.05;;;;;;;4.20;100.00;100377.97;5031416;28;20524;-75
2021/12/03 16:04:39;;;;;;;13.13;9.23;;;;;;;4.25;100.00;100373.81;5024626;28;20041;-73
2021/12/03 16:07:17;;;;;;;12.63;9.82;;;;;;;4.28;100.00;100373.91;5028155;28;20969;-74
2021/12/03 16:25:49;;;;;;;12.75;10.25;;;;;;;4.28;100.00;100379.13;5022429;28;20048;-75
2021/12/03 16:52:34;;;;;;;14.57;11.30;;;;;;;4.41;100.00;100382.13;5030860;28;20039;-74
2021/12/03 16:55:01;;;;;;;14.60;10.50;;;;;;;4.45;100.00;100377.09;5027081;28;20122;-75
2021/12/03 16:57:36;;;;;;;12.80;10.82;;;;;;;4.42;100.00;100355.25;5027903;28;20386;-74
2021/12/03 17:00:16;;;;;;;16.33;10.82;;;;;;;4.42;100.00;100358.75;5029686;28;20480;-76
2021/12/03 17:02:50;;;;;;;14.05;10.88;;;;;;;4.38;100.00;100344.75;5029609;28;20525;-77
2021/12/03 17:24:27;;;;;;;27.48;19.00;;;;;;;4.41;100.00;100306.59;5030610;28;20076;-76
2021/12/03 17:58:24;;;;;;;39.50;22.90;;;;;;;4.33;100.00;100309.84;5031252;28;20037;-77
2021/12/03 18:01:03;;;;;;;36.42;21.88;;;;;;;4.33;100.00;100291.59;5027004;28;20375;-74
2021/12/03 18:56:41;;;;;;;41.10;23.90;;;;;;;4.08;100.00;100302.91;5027419;28;20071;-75
2021/12/03 18:59:08;;;;;;;46.45;23.48;;;;;;;4.11;100.00;100317.75;5033352;28;20059;-73
2021/12/03 19:01:34;;;;;;;48.78;24.77;;;;;;;4.12;100.00;100309.13;5030909;28;20029;-75
2021/12/03 19:07:15;;;;;;;45.17;22.10;;;;;;;4.13;100.00;100308.28;4989213;28;20128;-76
2021/12/03 19:09:45;;;;;;;41.47;22.02;;;;;;;4.14;100.00;100304.88;5004974;28;20591;-75
2021/12/03 19:12:15;;;;;;;44.47;21.73;;;;;;;4.14;100.00;100297.06;5005504;28;20075;-75
2021/12/03 19:14:50;;;;;;;41.92;21.27;;;;;;;4.17;100.00;100286.72;5033168;28;20037;-73
2021/12/03 19:17:17;;;;;;;39.75;21.95;;;;;;;4.16;100.00;100274.53;5030254;28;20496;-75
2021/12/03 19:19:46;;;;;;;42.83;21.65;;;;;;;4.15;100.00;100277.97;5032780;28;20026;-76